PATA

Details ICAO PATA
Name RALPH M CALHOUN MEM
Region USA (Alaska)
Timezone America/Anchorage (UTC-8.0)
Plans Departing 10
Arriving 4
Stats Elevation 227 ft / 69 m (AMSL)
Location 65.174403° -152.109385°
Runways 1
Magnetic Variation 15.816° E
Sunrise 2018-05-23 12:13:11 UTC / 2018-05-23 04:13:11 Local
Sunset 2018-05-24 08:00:08 UTC / 2018-05-24 00:00:08 Local
Advertisement - Login to hide

Runways

ID Width Length Bearing (true) Bearing (mag) Surface Threshold Offset Overrun Length
07 150 ft / 46 m 4,372 ft / 1,333 m 89.30° 73.48° Gravel 0 ft / 0 m 420 ft / 128 m
25 150 ft / 46 m 4,372 ft / 1,333 m 269.32° 253.50° Gravel 0 ft / 0 m 200 ft / 61 m

Map

Weather


0- 5 10 15 20 25 30 35+ Temperature / ° C

Clouds and Precipitation
Forecast for 2018-05-23 12:00 UTC. Updated 2 hours ago

Ground ~20,000 ft ~40,000 ft Winds

METAR

PATA 231052Z AUTO 00000KT 10SM BKN065 04/03 A2970 RMK AO2 SLP060 T00390028 TSNO

TAF

TAF PATA 230520Z 2306/2406 28004KT P6SM VCSH BKN060 OVC100 FM231700 VRB03KT 5SM -SHRA SCT030 BKN050

Frequencies

Recorded 135.10 MHz ASOS
Unicom 122.90 MHz CTAF
Warning: Do not use this data for real-world aviation or navigation. No guarantee of current accuracy is given.